Time;durP1;ratioP1;P1;durP2;ratioP2;P2;SDS_P1;SDS_P2;PMS_P1;PMS_P2;Temp;Humidity;BMP_temperature;BMP_pressure;BME280_temperature;BME280_humidity;BME280_pressure;Samples;Min_cycle;Max_cycle;Signal;HPM_P1;HPM_P2
2023/10/17 00:00:16;;;;;;;43.63;15.68;;;;;;;;;;6246651;28;20183;-58
2023/10/17 00:03:38;;;;;;;45.47;17.50;;;;;;;;;;6244476;28;20045;-56
2023/10/17 00:06:38;;;;;;;47.85;17.63;;;;;;;;;;6246091;28;20053;-57
2023/10/17 00:09:39;;;;;;;51.78;19.33;;;;;;;;;;6245888;28;20099;-58
2023/10/17 00:12:43;;;;;;;38.17;16.45;;;;;;;;;;6246841;28;20095;-58
2023/10/17 00:15:46;;;;;;;47.83;16.23;;;;;;;;;;6245626;28;20084;-61
2023/10/17 00:18:46;;;;;;;43.15;16.30;;;;;;;;;;6244686;28;20549;-61
2023/10/17 00:21:49;;;;;;;41.45;15.85;;;;;;;;;;6252162;28;20079;-61
2023/10/17 00:24:57;;;;;;;;;;;;;;;;;;6262658;28;20048;-60
2023/10/17 00:27:58;;;;;;;52.80;19.50;;;;;;;;;;6258552;28;20406;-60
2023/10/17 00:30:59;;;;;;;42.28;16.08;;;;;;;;;;6245128;28;20128;-61
2023/10/17 00:34:00;;;;;;;48.07;17.83;;;;;;;;;;6246173;28;20045;-57
2023/10/17 00:37:06;;;;;;;44.13;16.55;;;;;;;;;;6245526;28;20060;-60
2023/10/17 00:40:26;;;;;;;52.45;20.10;;;;;;;;;;6246064;28;20408;-60
2023/10/17 00:43:30;;;;;;;51.80;19.70;;;;;;;;;;6244940;28;20251;-60
2023/10/17 00:46:31;;;;;;;54.80;21.02;;;;;;;;;;6245198;28;20044;-61
2023/10/17 00:49:40;;;;;;;51.22;20.65;;;;;;;;;;6244196;28;20099;-61
2023/10/17 00:52:42;;;;;;;55.25;21.08;;;;;;;;;;6245635;28;20040;-60
2023/10/17 00:56:06;;;;;;;51.65;18.48;;;;;;;;;;6245217;28;20095;-60
2023/10/17 00:59:07;;;;;;;49.17;18.83;;;;;;;;;;6247600;28;20735;-60
2023/10/17 01:02:08;;;;;;;70.93;25.23;;;;;;;;;;6246981;28;20049;-58
2023/10/17 01:05:11;;;;;;;61.83;22.30;;;;;;;;;;6245255;28;20061;-60
2023/10/17 01:08:11;;;;;;;50.95;20.10;;;;;;;;;;6250216;28;20057;-60
2023/10/17 01:11:20;;;;;;;56.53;20.67;;;;;;;;;;6244086;28;20053;-61
2023/10/17 01:14:23;;;;;;;51.35;20.73;;;;;;;;;;6244755;28;20506;-60
2023/10/17 01:17:24;;;;;;;57.47;22.13;;;;;;;;;;6245106;28;20063;-61
2023/10/17 01:20:24;;;;;;;52.28;21.15;;;;;;;;;;6243783;28;20058;-60
2023/10/17 01:23:26;;;;;;;58.70;21.10;;;;;;;;;;6260552;28;20512;-61
2023/10/17 01:26:28;;;;;;;59.67;21.98;;;;;;;;;;6244729;28;20400;-59
2023/10/17 01:29:29;;;;;;;54.20;20.95;;;;;;;;;;6249281;28;20059;-57
2023/10/17 01:32:30;;;;;;;55.55;21.65;;;;;;;;;;6241491;28;20067;-59
2023/10/17 01:35:31;;;;;;;64.10;21.70;;;;;;;;;;6243236;28;20046;-60
2023/10/17 01:38:31;;;;;;;52.85;20.65;;;;;;;;;;6245128;28;20048;-60
2023/10/17 01:41:32;;;;;;;49.10;19.15;;;;;;;;;;6240977;28;20077;-60
2023/10/17 01:44:34;;;;;;;55.97;20.00;;;;;;;;;;6243089;28;20091;-61
2023/10/17 01:47:36;;;;;;;53.30;20.55;;;;;;;;;;6244200;28;20054;-61
2023/10/17 01:50:37;;;;;;;48.90;21.35;;;;;;;;;;6243837;28;20120;-58
2023/10/17 01:53:39;;;;;;;54.25;21.63;;;;;;;;;;6244127;28;20049;-58
2023/10/17 01:56:40;;;;;;;60.90;22.57;;;;;;;;;;6243152;28;20030;-60
2023/10/17 01:59:41;;;;;;;62.85;23.73;;;;;;;;;;6245749;28;20481;-60
2023/10/17 02:02:42;;;;;;;71.82;27.83;;;;;;;;;;6242450;28;20060;-60
2023/10/17 02:05:44;;;;;;;66.55;25.10;;;;;;;;;;6247431;28;20045;-60
2023/10/17 02:08:45;;;;;;;68.13;26.20;;;;;;;;;;6244196;28;20049;-60
2023/10/17 02:11:50;;;;;;;64.13;26.05;;;;;;;;;;6243919;28;20038;-58
2023/10/17 02:14:51;;;;;;;64.90;23.73;;;;;;;;;;6242547;28;20045;-61
2023/10/17 02:17:53;;;;;;;63.05;24.75;;;;;;;;;;6243782;28;20060;-60
2023/10/17 02:20:55;;;;;;;61.55;23.10;;;;;;;;;;6244974;28;20519;-60
2023/10/17 02:23:55;;;;;;;66.43;25.35;;;;;;;;;;6250810;28;20392;-60
2023/10/17 02:26:56;;;;;;;69.20;24.15;;;;;;;;;;6251425;28;20060;-59
2023/10/17 02:29:58;;;;;;;60.97;22.58;;;;;;;;;;6250679;28;20041;-60
2023/10/17 02:33:01;;;;;;;67.57;25.65;;;;;;;;;;6242495;28;20132;-60
2023/10/17 02:36:12;;;;;;;71.72;26.30;;;;;;;;;;6249570;28;20152;-59
2023/10/17 02:39:12;;;;;;;68.03;23.30;;;;;;;;;;6245658;28;20556;-60
2023/10/17 02:42:15;;;;;;;64.38;23.90;;;;;;;;;;6241998;28;20416;-59
2023/10/17 02:45:25;;;;;;;64.03;23.48;;;;;;;;;;6242224;28;20086;-60
2023/10/17 02:48:26;;;;;;;62.55;23.02;;;;;;;;;;6256354;28;20041;-60
2023/10/17 02:51:33;;;;;;;60.72;22.52;;;;;;;;;;6241705;28;20052;-60
2023/10/17 02:58:13;;;;;;;67.47;23.50;;;;;;;;;;6200678;28;20527;-59
2023/10/17 03:01:14;;;;;;;60.20;22.27;;;;;;;;;;6242681;28;20053;-58
2023/10/17 03:04:16;;;;;;;70.47;24.42;;;;;;;;;;6243441;28;20053;-60
2023/10/17 03:07:17;;;;;;;60.40;24.20;;;;;;;;;;6242031;28;20091;-62
2023/10/17 03:10:38;;;;;;;67.97;25.95;;;;;;;;;;6242430;28;20042;-60
2023/10/17 03:13:43;;;;;;;83.65;28.50;;;;;;;;;;6243452;28;20126;-57
2023/10/17 03:16:43;;;;;;;71.95;26.90;;;;;;;;;;6242028;28;20451;-60
2023/10/17 03:19:44;;;;;;;71.85;28.83;;;;;;;;;;6241450;28;20045;-56
2023/10/17 03:22:44;;;;;;;81.05;28.85;;;;;;;;;;6253808;28;20053;-61
2023/10/17 03:25:48;;;;;;;87.40;33.17;;;;;;;;;;6257371;28;20077;-61
2023/10/17 03:28:50;;;;;;;82.15;31.15;;;;;;;;;;6245579;28;20045;-61
2023/10/17 03:31:53;;;;;;;78.90;30.05;;;;;;;;;;6242046;28;20052;-60
2023/10/17 03:34:56;;;;;;;79.55;29.10;;;;;;;;;;6241693;28;20590;-58
2023/10/17 03:37:57;;;;;;;76.63;30.50;;;;;;;;;;6241023;28;20044;-62
2023/10/17 03:41:07;;;;;;;78.85;30.27;;;;;;;;;;6240860;28;20061;-61
2023/10/17 03:44:08;;;;;;;76.85;29.13;;;;;;;;;;6254385;28;20045;-60
2023/10/17 03:47:08;;;;;;;73.15;28.15;;;;;;;;;;6245232;28;20050;-58
2023/10/17 03:50:09;;;;;;;72.25;27.10;;;;;;;;;;6242327;28;20400;-61
2023/10/17 03:53:29;;;;;;;71.35;27.85;;;;;;;;;;6241941;28;20049;-58
2023/10/17 03:56:36;;;;;;;71.57;27.80;;;;;;;;;;6242187;28;20048;-61
2023/10/17 03:59:40;;;;;;;61.05;24.25;;;;;;;;;;6241167;28;20518;-60
2023/10/17 04:02:41;;;;;;;63.67;25.98;;;;;;;;;;6246656;28;20098;-60
2023/10/17 04:05:42;;;;;;;69.53;26.15;;;;;;;;;;6253513;28;20057;-54
2023/10/17 04:08:49;;;;;;;78.50;29.48;;;;;;;;;;6239935;28;20473;-59
2023/10/17 04:11:49;;;;;;;83.93;31.85;;;;;;;;;;6243191;28;20052;-59
2023/10/17 04:14:59;;;;;;;76.28;30.92;;;;;;;;;;6241794;28;20485;-60
2023/10/17 04:18:00;;;;;;;73.25;29.02;;;;;;;;;;6255461;28;20128;-60
2023/10/17 04:21:17;;;;;;;82.32;29.88;;;;;;;;;;6263293;28;20052;-61
2023/10/17 04:24:33;;;;;;;77.65;31.10;;;;;;;;;;6269521;28;20114;-60
2023/10/17 04:27:34;;;;;;;86.15;34.75;;;;;;;;;;6264976;28;20053;-56
2023/10/17 04:30:35;;;;;;;110.15;41.72;;;;;;;;;;6269490;28;20053;-60
2023/10/17 04:33:36;;;;;;;116.68;44.85;;;;;;;;;;6267215;28;20049;-61
2023/10/17 04:36:39;;;;;;;121.85;45.42;;;;;;;;;;6259556;28;20068;-59
2023/10/17 04:39:48;;;;;;;120.55;46.03;;;;;;;;;;6269103;28;20051;-60
2023/10/17 04:45:55;;;;;;;124.20;47.10;;;;;;;;;;6244843;28;20045;-58
2023/10/17 04:49:17;;;;;;;123.40;47.85;;;;;;;;;;6242330;28;20073;-59
2023/10/17 04:52:21;;;;;;;113.63;44.08;;;;;;;;;;6242237;28;20500;-57
2023/10/17 04:55:22;;;;;;;113.75;44.00;;;;;;;;;;6241467;28;20088;-60
2023/10/17 04:58:39;;;;;;;122.77;45.23;;;;;;;;;;6242323;28;20053;-59
2023/10/17 05:01:46;;;;;;;119.40;44.25;;;;;;;;;;6242912;28;20334;-59
2023/10/17 05:09:00;;;;;;;150.02;54.05;;;;;;;;;;6241569;28;20072;-58
2023/10/17 06:17:50;;;;;;;170.05;56.63;;;;;;;;;;6243794;28;20041;-61
2023/10/17 06:30:48;;;;;;;150.05;56.22;;;;;;;;;;6242878;28;20045;-59
2023/10/17 06:33:48;;;;;;;147.30;54.70;;;;;;;;;;6241658;28;20073;-55
2023/10/17 06:36:50;;;;;;;158.73;56.65;;;;;;;;;;6241887;28;20511;-59
2023/10/17 06:39:57;;;;;;;164.80;61.08;;;;;;;;;;6244487;28;20053;-59
2023/10/17 06:43:10;;;;;;;184.23;64.05;;;;;;;;;;6239302;28;20063;-59
2023/10/17 06:46:14;;;;;;;161.35;57.50;;;;;;;;;;6239230;28;20060;-57
2023/10/17 06:55:58;;;;;;;279.88;88.45;;;;;;;;;;6245190;28;20049;-59
2023/10/17 06:59:05;;;;;;;211.98;73.50;;;;;;;;;;6243010;28;20056;-60
2023/10/17 07:05:49;;;;;;;162.65;59.45;;;;;;;;;;6179740;28;20050;-56
2023/10/17 07:08:51;;;;;;;140.93;53.88;;;;;;;;;;6241580;28;20116;-59
2023/10/17 07:11:52;;;;;;;166.98;56.08;;;;;;;;;;6242489;28;20499;-57
2023/10/17 07:14:56;;;;;;;167.63;60.60;;;;;;;;;;6242339;28;20056;-59
2023/10/17 07:21:17;;;;;;;158.68;53.47;;;;;;;;;;6240909;28;20041;-60
2023/10/17 07:24:23;;;;;;;140.70;49.78;;;;;;;;;;6241449;28;20049;-59
2023/10/17 07:27:27;;;;;;;141.90;46.55;;;;;;;;;;6242377;28;20049;-61
2023/10/17 07:30:35;;;;;;;139.27;53.38;;;;;;;;;;6238820;28;20053;-57
2023/10/17 07:33:36;;;;;;;152.77;55.25;;;;;;;;;;6241385;28;20575;-55
2023/10/17 07:36:39;;;;;;;150.30;52.88;;;;;;;;;;6241282;28;20041;-60
2023/10/17 07:39:40;;;;;;;172.32;60.25;;;;;;;;;;6241744;28;20041;-61
2023/10/17 07:42:41;;;;;;;156.13;53.58;;;;;;;;;;6240430;28;20443;-55
2023/10/17 07:45:42;;;;;;;135.98;49.97;;;;;;;;;;6239959;28;20041;-54
2023/10/17 07:48:51;;;;;;;131.77;46.17;;;;;;;;;;6240635;28;20344;-61
2023/10/17 07:51:53;;;;;;;114.55;40.47;;;;;;;;;;6240266;28;20124;-60
2023/10/17 07:55:17;;;;;;;117.95;40.72;;;;;;;;;;6245969;28;20060;-57
2023/10/17 07:58:38;;;;;;;120.60;43.50;;;;;;;;;;6246334;28;20069;-61
2023/10/17 08:01:42;;;;;;;127.75;43.83;;;;;;;;;;6247103;28;20049;-61
2023/10/17 08:04:44;;;;;;;112.88;40.78;;;;;;;;;;6245490;28;20605;-61
2023/10/17 08:07:49;;;;;;;116.32;42.05;;;;;;;;;;6244781;28;20095;-57
2023/10/17 08:10:51;;;;;;;131.00;44.67;;;;;;;;;;6245380;28;20049;-62
2023/10/17 08:13:56;;;;;;;113.00;42.17;;;;;;;;;;6244960;28;20258;-60
2023/10/17 08:16:58;;;;;;;101.63;35.95;;;;;;;;;;6245255;28;20045;-59
2023/10/17 08:23:07;;;;;;;90.45;33.60;;;;;;;;;;6246530;28;20313;-61
2023/10/17 08:26:11;;;;;;;84.13;31.42;;;;;;;;;;6246097;28;20042;-61
2023/10/17 08:29:12;;;;;;;93.40;33.65;;;;;;;;;;6243678;28;20288;-59
2023/10/17 08:35:36;;;;;;;88.20;29.00;;;;;;;;;;6244403;28;20187;-61
2023/10/17 08:38:39;;;;;;;72.47;27.92;;;;;;;;;;6244963;28;20042;-60
2023/10/17 08:41:40;;;;;;;63.78;23.50;;;;;;;;;;6226946;28;20584;-61
2023/10/17 08:44:43;;;;;;;61.58;22.42;;;;;;;;;;6245034;28;20049;-60
2023/10/17 08:47:43;;;;;;;78.13;28.98;;;;;;;;;;6243978;28;20053;-61
2023/10/17 08:50:44;;;;;;;64.43;22.50;;;;;;;;;;6243997;28;20049;-62
2023/10/17 08:53:45;;;;;;;56.72;22.10;;;;;;;;;;6246974;28;21045;-60
2023/10/17 08:56:47;;;;;;;67.70;22.85;;;;;;;;;;6245043;28;20046;-62
2023/10/17 09:03:02;;;;;;;56.03;21.42;;;;;;;;;;6244542;28;20058;-62
2023/10/17 09:09:21;;;;;;;50.85;19.17;;;;;;;;;;6244479;28;20077;-61
2023/10/17 09:12:25;;;;;;;46.08;15.82;;;;;;;;;;6242800;28;20499;-58
2023/10/17 09:15:35;;;;;;;43.92;18.05;;;;;;;;;;6245289;28;20098;-61
2023/10/17 09:18:42;;;;;;;48.33;17.08;;;;;;;;;;6243839;28;20045;-61
2023/10/17 09:21:47;;;;;;;40.05;15.52;;;;;;;;;;6244008;28;20735;-61
2023/10/17 09:24:50;;;;;;;25.35;9.50;;;;;;;;;;6245425;28;20041;-62
2023/10/17 09:27:52;;;;;;;24.67;8.75;;;;;;;;;;6245205;28;20056;-62
2023/10/17 09:31:06;;;;;;;28.52;8.57;;;;;;;;;;6242901;28;20185;-60
2023/10/17 09:34:07;;;;;;;17.48;7.75;;;;;;;;;;6245367;28;20049;-61
2023/10/17 09:37:12;;;;;;;21.08;8.10;;;;;;;;;;6243059;28;20060;-61
2023/10/17 09:40:22;;;;;;;22.23;8.57;;;;;;;;;;6243657;28;20045;-61
2023/10/17 09:43:22;;;;;;;26.85;8.77;;;;;;;;;;6243609;28;20096;-61
2023/10/17 09:46:26;;;;;;;26.30;9.55;;;;;;;;;;6244190;28;20041;-59
2023/10/17 09:49:43;;;;;;;32.88;13.38;;;;;;;;;;6244186;28;20045;-62
2023/10/17 09:52:51;;;;;;;31.33;12.88;;;;;;;;;;6244399;28;20056;-62
2023/10/17 09:55:55;;;;;;;28.35;10.18;;;;;;;;;;6244222;28;20057;-57
2023/10/17 09:59:02;;;;;;;22.15;8.80;;;;;;;;;;6244093;28;20040;-59
2023/10/17 10:02:07;;;;;;;23.52;7.93;;;;;;;;;;6243438;28;20049;-61
2023/10/17 10:05:24;;;;;;;18.67;8.40;;;;;;;;;;6243625;28;20048;-61
2023/10/17 10:08:34;;;;;;;18.67;7.43;;;;;;;;;;6243048;28;20048;-61
2023/10/17 10:11:50;;;;;;;24.33;7.20;;;;;;;;;;6243913;28;20381;-61
2023/10/17 10:14:51;;;;;;;18.73;6.35;;;;;;;;;;6243157;28;20042;-62
2023/10/17 10:17:52;;;;;;;19.10;7.90;;;;;;;;;;6242102;28;20033;-58
2023/10/17 10:20:55;;;;;;;18.80;8.13;;;;;;;;;;6241457;28;20068;-58
2023/10/17 10:23:56;;;;;;;20.33;8.00;;;;;;;;;;6242628;28;20111;-60
2023/10/17 10:27:14;;;;;;;23.77;8.70;;;;;;;;;;6243335;28;20487;-60
2023/10/17 10:30:36;;;;;;;24.60;8.93;;;;;;;;;;6243369;28;20096;-60
2023/10/17 10:33:37;;;;;;;20.58;7.50;;;;;;;;;;6242331;28;20416;-56
2023/10/17 10:36:39;;;;;;;17.77;7.20;;;;;;;;;;6243115;28;20057;-62
2023/10/17 10:39:40;;;;;;;19.02;7.03;;;;;;;;;;6241431;28;20047;-61
2023/10/17 10:42:45;;;;;;;14.90;6.50;;;;;;;;;;6240598;28;20505;-62
2023/10/17 10:45:50;;;;;;;16.38;6.50;;;;;;;;;;6242612;28;20459;-62
2023/10/17 10:48:53;;;;;;;13.13;6.00;;;;;;;;;;6239571;28;20527;-62
2023/10/17 10:51:57;;;;;;;17.13;6.55;;;;;;;;;;6243808;28;20487;-60
2023/10/17 10:55:01;;;;;;;22.75;7.18;;;;;;;;;;6243128;28;20096;-60
2023/10/17 10:58:03;;;;;;;16.05;6.50;;;;;;;;;;6241022;28;20065;-61
2023/10/17 11:01:07;;;;;;;12.88;6.03;;;;;;;;;;6241768;28;20044;-61
2023/10/17 11:04:12;;;;;;;17.33;6.03;;;;;;;;;;6242606;28;20049;-60
2023/10/17 11:07:22;;;;;;;15.60;6.82;;;;;;;;;;6241863;28;20046;-61
2023/10/17 11:10:23;;;;;;;15.40;6.28;;;;;;;;;;6240531;28;20052;-61
2023/10/17 11:13:33;;;;;;;14.65;5.90;;;;;;;;;;6239511;28;20149;-60
2023/10/17 11:16:33;;;;;;;13.30;5.75;;;;;;;;;;6241813;28;20064;-60
2023/10/17 11:19:34;;;;;;;14.45;5.32;;;;;;;;;;6240559;28;20053;-61
2023/10/17 11:22:37;;;;;;;15.02;5.60;;;;;;;;;;6242217;28;20514;-60
2023/10/17 11:25:44;;;;;;;17.50;5.45;;;;;;;;;;6241360;28;20096;-61
2023/10/17 11:28:51;;;;;;;14.70;5.90;;;;;;;;;;6244491;28;20156;-62
2023/10/17 11:31:54;;;;;;;16.20;6.25;;;;;;;;;;6246846;28;20056;-58
2023/10/17 11:35:05;;;;;;;10.52;5.32;;;;;;;;;;6247940;28;20141;-60
2023/10/17 11:38:34;;;;;;;14.73;5.97;;;;;;;;;;6246923;28;20049;-61
2023/10/17 11:41:53;;;;;;;11.05;5.28;;;;;;;;;;6247207;28;20057;-61
2023/10/17 11:44:54;;;;;;;11.32;4.90;;;;;;;;;;6245506;28;20511;-61
2023/10/17 11:47:55;;;;;;;10.80;4.80;;;;;;;;;;6246628;28;20389;-59
2023/10/17 11:51:12;;;;;;;13.43;6.00;;;;;;;;;;6247152;28;20050;-61
2023/10/17 11:54:14;;;;;;;12.90;5.43;;;;;;;;;;6246230;28;20051;-61
2023/10/17 11:57:14;;;;;;;12.02;4.75;;;;;;;;;;6247892;28;20045;-60
2023/10/17 12:03:19;;;;;;;11.68;3.88;;;;;;;;;;6245540;28;20119;-61
2023/10/17 12:06:23;;;;;;;13.05;4.53;;;;;;;;;;6245493;28;20507;-60
2023/10/17 12:09:24;;;;;;;13.45;5.03;;;;;;;;;;6246657;28;20054;-60
2023/10/17 12:12:26;;;;;;;11.63;4.85;;;;;;;;;;6244644;28;20575;-59
2023/10/17 12:15:27;;;;;;;15.40;5.35;;;;;;;;;;6246356;28;20052;-59
2023/10/17 12:18:27;;;;;;;9.77;4.55;;;;;;;;;;6246243;28;20049;-60
2023/10/17 12:21:28;;;;;;;16.85;5.70;;;;;;;;;;6253692;28;20049;-60
2023/10/17 12:24:29;;;;;;;11.05;5.25;;;;;;;;;;6257231;28;21057;-60
2023/10/17 12:27:29;;;;;;;12.80;5.10;;;;;;;;;;6254165;28;20052;-58
2023/10/17 12:30:35;;;;;;;12.23;5.70;;;;;;;;;;6257279;28;20122;-59
2023/10/17 12:33:36;;;;;;;17.88;6.75;;;;;;;;;;6256306;28;20049;-61
2023/10/17 12:36:37;;;;;;;18.33;7.47;;;;;;;;;;6252997;28;20053;-60
2023/10/17 12:39:40;;;;;;;16.05;7.30;;;;;;;;;;6256170;28;20416;-60
2023/10/17 12:42:41;;;;;;;19.30;7.43;;;;;;;;;;6255251;28;20079;-58
2023/10/17 12:45:42;;;;;;;19.42;7.95;;;;;;;;;;6258499;28;20045;-60
2023/10/17 12:48:43;;;;;;;19.10;8.07;;;;;;;;;;6256687;28;20587;-56
2023/10/17 12:51:53;;;;;;;17.17;7.60;;;;;;;;;;6254237;28;20059;-56
2023/10/17 12:54:54;;;;;;;14.85;6.15;;;;;;;;;;6257308;28;20411;-62
2023/10/17 12:57:54;;;;;;;16.13;6.30;;;;;;;;;;6252576;28;20055;-55
2023/10/17 13:00:58;;;;;;;16.30;6.55;;;;;;;;;;6252862;28;20072;-60
2023/10/17 13:03:58;;;;;;;11.85;5.35;;;;;;;;;;6256223;28;20055;-59
2023/10/17 13:07:00;;;;;;;16.30;5.60;;;;;;;;;;6255216;28;20072;-56
2023/10/17 13:10:00;;;;;;;18.97;7.23;;;;;;;;;;6256105;28;20516;-55
2023/10/17 13:13:01;;;;;;;19.65;8.25;;;;;;;;;;6252508;28;20110;-60
2023/10/17 13:16:05;;;;;;;18.15;6.57;;;;;;;;;;6253537;28;20059;-57
2023/10/17 13:19:06;;;;;;;14.40;4.97;;;;;;;;;;6255327;28;20044;-57
2023/10/17 13:22:08;;;;;;;16.30;6.43;;;;;;;;;;6236019;28;20401;-59
2023/10/17 13:25:12;;;;;;;12.07;4.82;;;;;;;;;;6255846;28;20044;-58
2023/10/17 13:28:12;;;;;;;12.05;5.20;;;;;;;;;;6252151;28;20049;-58
2023/10/17 13:31:15;;;;;;;9.45;4.65;;;;;;;;;;6237180;28;20075;-58
2023/10/17 13:34:22;;;;;;;12.38;5.32;;;;;;;;;;6261339;28;20076;-59
2023/10/17 13:37:23;;;;;;;9.65;4.82;;;;;;;;;;6259646;28;20400;-58
2023/10/17 13:40:24;;;;;;;14.70;5.28;;;;;;;;;;6258079;28;20052;-60
2023/10/17 13:43:25;;;;;;;14.63;5.28;;;;;;;;;;6254646;28;20061;-55
2023/10/17 13:46:27;;;;;;;;;;;;;;;;;;6254245;28;20705;-58
2023/10/17 13:49:29;;;;;;;9.73;5.20;;;;;;;;;;6253597;28;19934;-56
2023/10/17 13:52:30;;;;;;;10.20;4.18;;;;;;;;;;6254379;28;20075;-55
2023/10/17 13:55:34;;;;;;;11.50;5.22;;;;;;;;;;6254444;28;20591;-60
2023/10/17 13:58:36;;;;;;;10.93;4.25;;;;;;;;;;6256101;28;20425;-57
2023/10/17 14:01:46;;;;;;;13.00;5.20;;;;;;;;;;6251570;28;20056;-61
2023/10/17 14:04:47;;;;;;;11.65;5.30;;;;;;;;;;6254892;28;20056;-58
2023/10/17 14:07:48;;;;;;;17.20;7.93;;;;;;;;;;6254644;28;20449;-60
2023/10/17 14:10:49;;;;;;;24.52;7.40;;;;;;;;;;6253312;28;20514;-56
2023/10/17 14:13:50;;;;;;;13.98;7.45;;;;;;;;;;6254434;28;20053;-59
2023/10/17 14:16:51;;;;;;;19.05;9.70;;;;;;;;;;6253955;28;20082;-59
2023/10/17 14:20:05;;;;;;;22.30;8.57;;;;;;;;;;6254927;28;20072;-58
2023/10/17 14:23:11;;;;;;;15.95;7.97;;;;;;;;;;6253970;28;20049;-59
2023/10/17 14:26:15;;;;;;;18.70;7.38;;;;;;;;;;6254810;28;20461;-59
2023/10/17 14:29:15;;;;;;;10.88;5.40;;;;;;;;;;6254927;28;20132;-61
2023/10/17 14:32:29;;;;;;;14.32;6.68;;;;;;;;;;6249944;28;20056;-59
2023/10/17 14:35:33;;;;;;;15.45;5.40;;;;;;;;;;6255468;28;20478;-61
2023/10/17 14:38:34;;;;;;;11.85;5.10;;;;;;;;;;6253856;28;20063;-61
2023/10/17 14:41:35;;;;;;;12.82;5.20;;;;;;;;;;6249348;28;20060;-58
2023/10/17 14:44:39;;;;;;;11.45;5.13;;;;;;;;;;6255650;28;20433;-60
2023/10/17 14:47:39;;;;;;;14.65;5.75;;;;;;;;;;6253675;28;20045;-58
2023/10/17 14:50:40;;;;;;;12.65;5.40;;;;;;;;;;6254493;28;20147;-57
2023/10/17 14:53:42;;;;;;;15.20;5.13;;;;;;;;;;6256932;28;20057;-58
2023/10/17 14:56:43;;;;;;;11.93;4.93;;;;;;;;;;6256167;28;20411;-60
2023/10/17 14:59:44;;;;;;;12.38;5.43;;;;;;;;;;6255951;28;20045;-59
2023/10/17 15:02:45;;;;;;;58.67;20.10;;;;;;;;;;6252957;28;20106;-58
2023/10/17 15:05:45;;;;;;;43.33;14.80;;;;;;;;;;6253881;28;20057;-59
2023/10/17 15:08:46;;;;;;;42.20;15.82;;;;;;;;;;6255825;28;20053;-59
2023/10/17 15:11:46;;;;;;;39.17;14.50;;;;;;;;;;6253392;28;20057;-57
2023/10/17 15:14:47;;;;;;;37.42;13.77;;;;;;;;;;6255847;28;20076;-61
2023/10/17 15:17:48;;;;;;;35.10;12.60;;;;;;;;;;6255217;28;20501;-59
2023/10/17 15:20:49;;;;;;;25.10;9.98;;;;;;;;;;6250553;28;20052;-61
2023/10/17 15:23:51;;;;;;;26.02;10.40;;;;;;;;;;6254998;28;20053;-58
2023/10/17 15:26:51;;;;;;;30.17;10.57;;;;;;;;;;6254622;28;20053;-62
2023/10/17 15:29:52;;;;;;;28.63;10.52;;;;;;;;;;6254383;28;20094;-60
2023/10/17 15:32:52;;;;;;;38.80;14.23;;;;;;;;;;6253413;28;20089;-63
2023/10/17 15:35:53;;;;;;;30.70;13.00;;;;;;;;;;6256526;28;20616;-57
2023/10/17 15:38:54;;;;;;;19.80;8.90;;;;;;;;;;6254918;28;20057;-55
2023/10/17 15:41:54;;;;;;;18.42;7.93;;;;;;;;;;6246827;28;20616;-55
2023/10/17 15:44:55;;;;;;;12.13;5.03;;;;;;;;;;6254652;28;20092;-53
2023/10/17 15:47:56;;;;;;;17.83;6.65;;;;;;;;;;6253752;28;20923;-61
2023/10/17 15:50:56;;;;;;;10.05;4.95;;;;;;;;;;6252318;28;20204;-60
2023/10/17 15:53:57;;;;;;;20.35;7.97;;;;;;;;;;6253014;28;20400;-50
2023/10/17 15:57:01;;;;;;;20.05;8.70;;;;;;;;;;6253689;28;20191;-56
2023/10/17 16:00:09;;;;;;;32.85;11.60;;;;;;;;;;6254696;28;20551;-52
2023/10/17 16:03:10;;;;;;;24.60;8.13;;;;;;;;;;6254642;28;20073;-54
2023/10/17 16:06:11;;;;;;;22.77;9.35;;;;;;;;;;6255073;28;20049;-55
2023/10/17 16:09:15;;;;;;;16.67;8.30;;;;;;;;;;6253773;28;20484;-61
2023/10/17 16:12:16;;;;;;;19.50;7.90;;;;;;;;;;6250598;28;20053;-50
2023/10/17 16:15:16;;;;;;;14.75;8.05;;;;;;;;;;6256365;28;20171;-50
2023/10/17 16:18:17;;;;;;;21.85;9.32;;;;;;;;;;6258685;28;20593;-54
2023/10/17 16:21:18;;;;;;;22.20;10.75;;;;;;;;;;6256264;28;20052;-59
2023/10/17 16:24:18;;;;;;;31.98;15.60;;;;;;;;;;6258871;28;20041;-60
2023/10/17 16:27:19;;;;;;;36.33;15.43;;;;;;;;;;6260278;28;20048;-57
2023/10/17 16:30:22;;;;;;;32.40;12.93;;;;;;;;;;6256793;28;20052;-59
2023/10/17 16:33:26;;;;;;;25.38;10.07;;;;;;;;;;6259871;28;20780;-58
2023/10/17 16:36:27;;;;;;;20.33;9.40;;;;;;;;;;6259347;28;20083;-54
2023/10/17 16:39:27;;;;;;;29.33;11.45;;;;;;;;;;6259660;28;20500;-60
2023/10/17 16:42:28;;;;;;;31.23;12.57;;;;;;;;;;6255384;28;20064;-60
2023/10/17 16:45:29;;;;;;;23.55;12.15;;;;;;;;;;6257971;28;20048;-54
2023/10/17 16:48:31;;;;;;;26.17;11.37;;;;;;;;;;6259332;28;20079;-60
2023/10/17 16:51:31;;;;;;;22.08;9.35;;;;;;;;;;6256971;28;20037;-59
2023/10/17 16:54:32;;;;;;;21.55;9.68;;;;;;;;;;6260107;28;20102;-59
2023/10/17 16:57:32;;;;;;;35.95;16.05;;;;;;;;;;6258477;28;20483;-53
2023/10/17 17:00:33;;;;;;;52.67;24.73;;;;;;;;;;6257300;28;20136;-51
2023/10/17 17:03:34;;;;;;;39.65;16.70;;;;;;;;;;6257091;28;20052;-56
2023/10/17 17:06:36;;;;;;;37.05;17.05;;;;;;;;;;6258149;28;20115;-59
2023/10/17 17:09:37;;;;;;;42.90;17.73;;;;;;;;;;6257311;28;20145;-60
2023/10/17 17:12:37;;;;;;;53.55;25.17;;;;;;;;;;6256594;28;20713;-59
2023/10/17 17:15:40;;;;;;;59.47;20.30;;;;;;;;;;6256221;28;20187;-56
2023/10/17 17:18:41;;;;;;;54.88;21.55;;;;;;;;;;6257755;28;20441;-59
2023/10/17 17:21:43;;;;;;;51.97;19.48;;;;;;;;;;6254483;28;20051;-53
2023/10/17 17:24:43;;;;;;;41.95;17.55;;;;;;;;;;6254259;28;20128;-50
2023/10/17 17:27:44;;;;;;;45.83;20.73;;;;;;;;;;6257517;28;20126;-52
2023/10/17 17:30:46;;;;;;;64.53;28.15;;;;;;;;;;6256028;28;20053;-50
2023/10/17 17:33:47;;;;;;;63.33;29.73;;;;;;;;;;6258062;28;20466;-64
2023/10/17 17:36:49;;;;;;;64.13;29.40;;;;;;;;;;6258550;28;20715;-57
2023/10/17 17:39:49;;;;;;;60.80;31.88;;;;;;;;;;6257245;28;20640;-66
2023/10/17 17:42:50;;;;;;;77.05;31.67;;;;;;;;;;6253710;28;20056;-66
2023/10/17 17:45:51;;;;;;;79.63;28.58;;;;;;;;;;6258111;28;20048;-67
2023/10/17 17:48:51;;;;;;;68.13;28.10;;;;;;;;;;6257098;28;20128;-61
2023/10/17 17:51:52;;;;;;;65.20;26.25;;;;;;;;;;6242385;28;20045;-63
2023/10/17 17:54:53;;;;;;;69.25;28.20;;;;;;;;;;6256114;28;20044;-59
2023/10/17 17:57:53;;;;;;;71.80;27.92;;;;;;;;;;6239861;28;20551;-57
2023/10/17 18:00:55;;;;;;;72.50;30.75;;;;;;;;;;6254413;28;20064;-57
2023/10/17 18:03:56;;;;;;;74.22;30.27;;;;;;;;;;6256020;28;20063;-60
2023/10/17 18:06:57;;;;;;;78.22;30.92;;;;;;;;;;6255618;28;20522;-58
2023/10/17 18:09:58;;;;;;;81.70;32.70;;;;;;;;;;6255134;28;20418;-56
2023/10/17 18:12:59;;;;;;;81.25;33.45;;;;;;;;;;6255336;28;20060;-59
2023/10/17 18:16:01;;;;;;;75.40;28.63;;;;;;;;;;6257049;28;20053;-59
2023/10/17 18:19:04;;;;;;;80.22;29.52;;;;;;;;;;6256907;28;20501;-60
2023/10/17 18:22:05;;;;;;;66.00;29.38;;;;;;;;;;6254864;28;20240;-62
2023/10/17 18:25:06;;;;;;;76.88;31.60;;;;;;;;;;6256785;28;20183;-56
2023/10/17 18:28:09;;;;;;;68.38;29.65;;;;;;;;;;6256807;28;20483;-60
2023/10/17 18:31:14;;;;;;;66.05;30.02;;;;;;;;;;6255739;28;20139;-56
2023/10/17 18:34:15;;;;;;;76.13;31.63;;;;;;;;;;6257601;28;20475;-59
2023/10/17 18:37:16;;;;;;;80.00;31.58;;;;;;;;;;6255354;28;20396;-59
2023/10/17 18:40:17;;;;;;;78.15;31.33;;;;;;;;;;6254910;28;20657;-59
2023/10/17 18:43:19;;;;;;;78.35;32.80;;;;;;;;;;6255492;28;20068;-58
2023/10/17 18:46:19;;;;;;;;;;;;;;;;;;6257726;28;20051;-57
2023/10/17 18:49:20;;;;;;;75.97;31.92;;;;;;;;;;6257688;28;19929;-58
2023/10/17 18:52:20;;;;;;;66.40;28.27;;;;;;;;;;6254663;28;20052;-60
2023/10/17 18:55:21;;;;;;;70.93;30.23;;;;;;;;;;6257280;28;20407;-58
2023/10/17 18:58:22;;;;;;;56.55;23.92;;;;;;;;;;6257353;28;20056;-57
2023/10/17 19:01:22;;;;;;;59.83;24.02;;;;;;;;;;6253322;28;20055;-58
2023/10/17 19:04:23;;;;;;;45.30;20.55;;;;;;;;;;6252877;28;20075;-57
2023/10/17 19:07:23;;;;;;;50.55;21.73;;;;;;;;;;6251656;28;20045;-61
2023/10/17 19:10:24;;;;;;;46.20;21.58;;;;;;;;;;6251726;28;20110;-62
2023/10/17 19:13:25;;;;;;;52.47;23.05;;;;;;;;;;6251418;28;20084;-58
2023/10/17 19:16:26;;;;;;;54.35;24.33;;;;;;;;;;6252462;28;20542;-59
2023/10/17 19:19:28;;;;;;;43.70;20.23;;;;;;;;;;6253434;28;20049;-61
2023/10/17 19:22:29;;;;;;;;;;;;;;;;;;6252056;28;20126;-57
2023/10/17 19:25:30;;;;;;;59.22;23.30;;;;;;;;;;6234801;28;20476;-58
2023/10/17 19:28:30;;;;;;;62.63;25.45;;;;;;;;;;6254603;28;20045;-60
2023/10/17 19:31:31;;;;;;;54.58;25.25;;;;;;;;;;6251754;28;20052;-57
2023/10/17 19:34:31;;;;;;;75.93;29.25;;;;;;;;;;6251983;28;20049;-57
2023/10/17 19:37:32;;;;;;;81.35;29.80;;;;;;;;;;6252703;28;20040;-57
2023/10/17 19:40:34;;;;;;;65.68;25.63;;;;;;;;;;6247980;28;20041;-60
2023/10/17 19:43:35;;;;;;;69.32;28.00;;;;;;;;;;6253481;28;20061;-57
2023/10/17 19:46:38;;;;;;;67.18;26.20;;;;;;;;;;6254188;28;20547;-61